Time;durP1;ratioP1;P1;durP2;ratioP2;P2;SDS_P1;SDS_P2;PMS_P1;PMS_P2;Temp;Humidity;BMP_temperature;BMP_pressure;BME280_temperature;BME280_humidity;BME280_pressure;Samples;Min_cycle;Max_cycle;Signal;HPM_P1;HPM_P2
2021/12/25 00:01:46;;;;;;;8.83;6.07;;;8.20;99.90;;;;;;4916496;29;20195;-75
2021/12/25 00:04:12;;;;;;;7.20;6.10;;;8.20;99.90;;;;;;4915882;29;20938;-76
2021/12/25 00:06:39;;;;;;;9.53;7.10;;;8.10;99.90;;;;;;4916350;29;20432;-75
2021/12/25 00:09:06;;;;;;;6.40;5.57;;;8.10;99.90;;;;;;4915438;29;20199;-76
2021/12/25 00:11:31;;;;;;;8.37;6.50;;;8.10;99.90;;;;;;4915589;29;20515;-75
2021/12/25 00:13:57;;;;;;;8.40;5.67;;;8.10;99.90;;;;;;4915432;29;20432;-75
2021/12/25 00:16:23;;;;;;;6.87;6.17;;;8.20;99.90;;;;;;4916218;29;20187;-76
2021/12/25 00:18:48;;;;;;;9.10;4.97;;;8.10;99.90;;;;;;4915937;29;20429;-75
2021/12/25 00:21:14;;;;;;;7.30;5.57;;;8.00;99.90;;;;;;4915765;29;20221;-75
2021/12/25 00:23:40;;;;;;;9.27;7.20;;;8.10;99.90;;;;;;4915419;29;20189;-75
2021/12/25 00:26:22;;;;;;;10.93;6.97;;;8.10;99.90;;;;;;4916116;29;20181;-75
2021/12/25 00:29:02;;;;;;;7.60;6.50;;;8.10;99.90;;;;;;4915851;29;20179;-76
2021/12/25 00:31:44;;;;;;;9.30;6.80;;;8.00;99.90;;;;;;4915507;29;20579;-75
2021/12/25 00:34:10;;;;;;;10.03;5.70;;;8.10;99.90;;;;;;4915234;29;20464;-74
2021/12/25 00:36:36;;;;;;;9.90;6.80;;;8.00;99.90;;;;;;4915727;29;20506;-76
2021/12/25 00:39:02;;;;;;;10.87;6.70;;;8.00;99.90;;;;;;4915362;29;20536;-76
2021/12/25 00:41:28;;;;;;;9.13;5.63;;;8.00;99.90;;;;;;4915748;29;21155;-75
2021/12/25 00:43:53;;;;;;;8.80;6.00;;;8.00;99.90;;;;;;4915072;29;20447;-76
2021/12/25 00:46:19;;;;;;;7.83;5.67;;;8.00;99.90;;;;;;4915741;29;20184;-75
2021/12/25 00:48:45;;;;;;;8.80;5.57;;;8.00;99.90;;;;;;4915595;29;20188;-75
2021/12/25 00:51:10;;;;;;;6.10;5.40;;;7.90;99.90;;;;;;4915150;29;20689;-76
2021/12/25 00:53:36;;;;;;;7.50;5.70;;;7.90;99.90;;;;;;4915259;29;20530;-76
2021/12/25 00:56:02;;;;;;;9.40;6.20;;;7.80;99.90;;;;;;4914737;29;20187;-75
2021/12/25 00:58:27;;;;;;;7.20;5.90;;;7.90;99.90;;;;;;4915408;29;20187;-75
2021/12/25 05:32:32;;;;;;;4.73;3.53;;;7.70;99.90;;;;;;5054221;23;20512;-73
2021/12/25 05:34:57;;;;;;;5.73;4.10;;;7.70;99.90;;;;;;4892196;29;20784;-74
2021/12/25 05:37:23;;;;;;;4.70;3.60;;;7.60;99.90;;;;;;4895496;29;20189;-76
2021/12/25 05:39:51;;;;;;;3.93;3.57;;;7.60;99.90;;;;;;4896221;29;20551;-75
2021/12/25 05:42:22;;;;;;;3.30;2.77;;;7.60;99.90;;;;;;4879160;29;20209;-76
2021/12/25 05:44:48;;;;;;;3.30;3.00;;;7.70;99.90;;;;;;4869294;29;20449;-76
2021/12/25 05:47:15;;;;;;;4.30;3.20;;;7.70;99.90;;;;;;4869745;29;21003;-75
2021/12/25 05:49:40;;;;;;;3.10;2.90;;;7.70;99.90;;;;;;4875832;29;20430;-76
2021/12/25 05:52:06;;;;;;;4.17;3.30;;;7.70;99.90;;;;;;4877279;29;20482;-75
2021/12/25 05:54:32;;;;;;;3.23;2.50;;;7.60;99.90;;;;;;4877706;29;20629;-75
2021/12/25 05:56:58;;;;;;;3.20;2.90;;;7.70;99.90;;;;;;4877411;29;20454;-75
2021/12/25 05:59:23;;;;;;;3.13;2.83;;;7.60;99.90;;;;;;4877794;29;20896;-78
2021/12/25 06:01:49;;;;;;;4.27;3.60;;;7.70;99.90;;;;;;4877312;29;20747;-76
2021/12/25 06:04:14;;;;;;;2.70;2.50;;;7.60;99.90;;;;;;4876595;29;20186;-77
2021/12/25 06:06:40;;;;;;;4.20;3.60;;;7.60;99.90;;;;;;4878125;29;20276;-76
2021/12/25 06:09:07;;;;;;;4.37;2.80;;;7.60;99.90;;;;;;4878966;29;20200;-77
2021/12/25 06:11:35;;;;;;;6.83;2.83;;;7.60;99.90;;;;;;4870045;29;20218;-78
2021/12/25 06:14:16;;;;;;;3.40;3.10;;;7.60;99.90;;;;;;4864909;29;20429;-77
2021/12/25 06:16:42;;;;;;;4.07;3.30;;;7.60;99.90;;;;;;4880659;29;20415;-77
2021/12/25 06:19:08;;;;;;;4.00;3.67;;;7.60;99.90;;;;;;4879302;29;20438;-77
2021/12/25 06:21:33;;;;;;;7.40;3.03;;;7.60;99.90;;;;;;4879084;29;20238;-78
2021/12/25 06:24:03;;;;;;;3.23;2.93;;;7.60;99.90;;;;;;4877413;29;20459;-77
2021/12/25 06:26:29;;;;;;;4.03;3.63;;;7.60;99.90;;;;;;4877546;29;20619;-77
2021/12/25 06:28:55;;;;;;;8.90;2.80;;;7.60;99.90;;;;;;4876615;29;20951;-78
2021/12/25 06:31:22;;;;;;;6.03;3.10;;;7.50;99.90;;;;;;4878231;29;20473;-76
2021/12/25 06:33:47;;;;;;;6.60;4.83;;;7.50;99.90;;;;;;4860621;29;20838;-77
2021/12/25 06:36:13;;;;;;;3.20;3.00;;;7.50;99.90;;;;;;4878455;29;20506;-77
2021/12/25 06:38:40;;;;;;;3.53;3.23;;;7.50;99.90;;;;;;4880561;29;20193;-77
2021/12/25 06:41:07;;;;;;;4.23;3.40;;;7.60;99.90;;;;;;4878774;29;20203;-77
2021/12/25 06:43:33;;;;;;;2.93;2.73;;;7.60;99.90;;;;;;4879956;29;20495;-77
2021/12/25 06:45:59;;;;;;;3.70;3.40;;;7.60;99.90;;;;;;4879447;29;20434;-75
2021/12/25 06:48:25;;;;;;;2.80;2.60;;;7.70;99.90;;;;;;4879196;29;20543;-78
2021/12/25 06:50:51;;;;;;;3.73;3.40;;;7.70;99.90;;;;;;4879161;29;20299;-77
2021/12/25 06:53:17;;;;;;;3.83;3.43;;;7.80;99.90;;;;;;4879980;29;20909;-77
2021/12/25 06:55:42;;;;;;;4.83;3.60;;;8.00;99.90;;;;;;4880643;29;20551;-76
2021/12/25 06:58:08;;;;;;;4.68;4.13;;;8.10;99.90;;;;;;4878459;29;20774;-75
2021/12/25 07:00:34;;;;;;;5.47;4.03;;;8.20;99.90;;;;;;4879344;29;20664;-74
2021/12/25 07:02:59;;;;;;;3.60;3.30;;;8.20;99.90;;;;;;4879431;29;20442;-74
2021/12/25 07:05:25;;;;;;;3.77;3.43;;;8.30;99.90;;;;;;4879227;29;20251;-75
2021/12/25 07:07:51;;;;;;;5.43;4.20;;;8.40;99.90;;;;;;4878139;29;20182;-75
2021/12/25 07:10:18;;;;;;;6.30;3.40;;;8.50;99.90;;;;;;4877637;29;20193;-75
2021/12/25 07:12:46;;;;;;;5.97;3.47;;;8.60;99.90;;;;;;4877610;29;20503;-72
2021/12/25 07:15:12;;;;;;;8.63;3.00;;;8.60;99.90;;;;;;4877625;29;20439;-75
2021/12/25 07:17:38;;;;;;;5.50;3.50;;;8.60;99.90;;;;;;4876332;29;20506;-75
2021/12/25 07:20:04;;;;;;;5.03;3.10;;;8.60;99.90;;;;;;4877239;29;20438;-75
2021/12/25 07:22:30;;;;;;;4.13;3.70;;;8.60;99.90;;;;;;4878201;29;20457;-74
2021/12/25 07:24:55;;;;;;;3.40;2.60;;;8.70;99.90;;;;;;4879207;29;20589;-75
2021/12/25 07:27:21;;;;;;;3.03;2.67;;;8.70;99.90;;;;;;4879117;29;20209;-75
2021/12/25 07:29:47;;;;;;;4.10;3.67;;;8.70;99.90;;;;;;4879115;29;20241;-74
2021/12/25 07:32:12;;;;;;;5.17;3.87;;;8.70;99.90;;;;;;4877986;29;20722;-73
2021/12/25 07:34:40;;;;;;;4.33;4.03;;;8.70;99.90;;;;;;4878661;29;20183;-75
2021/12/25 07:37:06;;;;;;;4.60;4.00;;;8.70;99.90;;;;;;4878872;29;20185;-73
2021/12/25 07:39:32;;;;;;;4.97;3.60;;;8.70;99.90;;;;;;4879142;29;21110;-75
2021/12/25 07:41:57;;;;;;;4.63;4.03;;;8.70;99.90;;;;;;4878334;29;20458;-75
2021/12/25 07:44:23;;;;;;;5.00;4.10;;;8.70;99.90;;;;;;4878751;29;20200;-74
2021/12/25 07:46:48;;;;;;;5.60;4.50;;;8.70;99.90;;;;;;4879258;29;20217;-75
2021/12/25 07:49:21;;;;;;;4.87;4.40;;;8.70;99.90;;;;;;4878760;29;20224;-75
2021/12/25 07:51:47;;;;;;;3.70;3.40;;;8.60;99.90;;;;;;4879001;29;20204;-75
2021/12/25 07:54:13;;;;;;;5.70;4.50;;;8.70;99.90;;;;;;4878091;29;20535;-75
2021/12/25 07:56:39;;;;;;;5.10;4.27;;;8.60;99.90;;;;;;4878551;29;20439;-75
2021/12/25 07:59:06;;;;;;;5.20;3.50;;;8.70;99.90;;;;;;4878329;29;20189;-75
2021/12/25 08:01:34;;;;;;;4.40;4.00;;;8.60;99.90;;;;;;4878951;29;20798;-76
2021/12/25 08:04:01;;;;;;;7.13;4.07;;;8.60;99.90;;;;;;4878034;29;20497;-76
2021/12/25 08:06:26;;;;;;;5.77;4.10;;;8.70;99.90;;;;;;4878541;29;20447;-75
2021/12/25 08:08:55;;;;;;;3.80;3.50;;;8.70;99.90;;;;;;4878727;29;20428;-76
2021/12/25 08:11:21;;;;;;;4.13;3.70;;;8.70;99.90;;;;;;4878259;29;20218;-75
2021/12/25 08:13:46;;;;;;;3.07;2.73;;;8.70;99.90;;;;;;4877569;29;20804;-75
2021/12/25 08:16:12;;;;;;;5.17;3.80;;;8.70;99.90;;;;;;4878405;29;20211;-75
2021/12/25 08:18:38;;;;;;;3.67;3.30;;;8.70;99.90;;;;;;4878365;29;20183;-76
2021/12/25 08:21:04;;;;;;;4.60;3.00;;;8.70;99.90;;;;;;4878154;29;20209;-76
2021/12/25 08:23:32;;;;;;;5.50;2.60;;;8.80;99.90;;;;;;4878429;29;20178;-77
2021/12/25 08:25:58;;;;;;;4.10;3.60;;;8.80;99.90;;;;;;4878020;29;21011;-77
2021/12/25 08:28:24;;;;;;;3.80;2.63;;;8.80;99.90;;;;;;4877787;29;20447;-75
2021/12/25 08:30:49;;;;;;;3.73;2.77;;;8.80;99.90;;;;;;4877274;29;21052;-76
2021/12/25 08:33:15;;;;;;;3.83;3.20;;;8.80;99.90;;;;;;4877857;29;20193;-76
2021/12/25 08:35:40;;;;;;;3.13;2.93;;;8.80;99.90;;;;;;4878302;29;20625;-76
2021/12/25 08:38:06;;;;;;;5.10;3.17;;;8.90;99.90;;;;;;4877320;29;20190;-75
2021/12/25 08:40:31;;;;;;;3.57;3.27;;;8.90;99.90;;;;;;4876603;29;20223;-75
2021/12/25 08:43:01;;;;;;;2.87;2.57;;;8.90;99.90;;;;;;4877498;29;20271;-76
2021/12/25 08:45:41;;;;;;;2.80;2.60;;;8.90;99.90;;;;;;4877051;29;20555;-76
2021/12/25 08:48:21;;;;;;;4.00;2.60;;;9.00;99.90;;;;;;4877554;29;20438;-77
2021/12/25 08:50:59;;;;;;;2.50;2.30;;;9.00;99.90;;;;;;4878012;29;20482;-77
2021/12/25 08:53:27;;;;;;;2.60;2.40;;;9.10;99.90;;;;;;4877424;29;20437;-77
2021/12/25 08:55:55;;;;;;;2.17;2.03;;;9.00;99.90;;;;;;4877869;29;20433;-76
2021/12/25 08:58:20;;;;;;;3.80;3.50;;;9.20;99.90;;;;;;4877907;29;20421;-76
2021/12/25 09:00:48;;;;;;;5.20;3.20;;;9.20;99.90;;;;;;4877392;29;20821;-76
2021/12/25 09:03:14;;;;;;;3.13;2.83;;;9.20;99.90;;;;;;4877198;29;21006;-75
2021/12/25 09:05:40;;;;;;;3.30;3.07;;;9.20;99.90;;;;;;4877937;29;20518;-76
2021/12/25 09:08:05;;;;;;;3.67;3.37;;;9.20;99.90;;;;;;4876923;29;20554;-76
2021/12/25 09:10:31;;;;;;;3.40;3.10;;;9.20;99.90;;;;;;4877625;29;20695;-75
2021/12/25 09:12:57;;;;;;;3.00;2.67;;;9.30;99.90;;;;;;4877017;29;20263;-75
2021/12/25 09:15:24;;;;;;;4.50;4.20;;;9.30;99.90;;;;;;4877811;29;20210;-76
2021/12/25 09:17:50;;;;;;;4.40;3.63;;;9.40;99.90;;;;;;4877269;29;20449;-75
2021/12/25 09:20:18;;;;;;;3.43;3.00;;;9.40;99.90;;;;;;4877870;29;20958;-76
2021/12/25 09:22:44;;;;;;;4.30;4.00;;;9.40;99.90;;;;;;4875737;29;20864;-73
2021/12/25 09:25:11;;;;;;;3.30;3.10;;;9.30;99.90;;;;;;4877515;29;20434;-76
2021/12/25 09:27:36;;;;;;;3.20;3.00;;;9.30;99.90;;;;;;4877320;29;20438;-76
2021/12/25 09:30:03;;;;;;;3.40;3.10;;;9.30;99.90;;;;;;4877044;29;20442;-75
2021/12/25 09:32:29;;;;;;;5.90;5.40;;;9.30;99.90;;;;;;4877224;29;20605;-75
2021/12/25 09:34:54;;;;;;;4.60;3.77;;;9.30;99.90;;;;;;4875859;29;20446;-74
2021/12/25 09:37:20;;;;;;;3.00;2.80;;;9.30;99.90;;;;;;4876782;29;20583;-75
2021/12/25 09:39:46;;;;;;;3.30;2.10;;;9.30;99.90;;;;;;4876768;29;20188;-75
2021/12/25 09:42:12;;;;;;;3.07;2.77;;;9.30;99.90;;;;;;4879445;29;20219;-74
2021/12/25 09:44:37;;;;;;;2.20;2.10;;;9.30;99.90;;;;;;4881091;29;20402;-75
2021/12/25 09:47:04;;;;;;;2.13;2.03;;;9.40;99.90;;;;;;4879843;29;20183;-76
2021/12/25 09:49:29;;;;;;;3.10;2.73;;;9.40;99.90;;;;;;4880953;29;20276;-75
2021/12/25 09:51:55;;;;;;;2.93;2.53;;;9.50;99.90;;;;;;4880908;29;20510;-76
2021/12/25 09:54:21;;;;;;;4.80;3.90;;;9.50;99.90;;;;;;4879826;29;20220;-75
2021/12/25 09:56:48;;;;;;;4.63;3.50;;;9.50;99.90;;;;;;4880967;29;20453;-76
2021/12/25 09:59:15;;;;;;;3.07;2.70;;;9.50;99.90;;;;;;4880354;29;20327;-76
2021/12/25 10:01:47;;;;;;;3.10;2.50;;;9.50;99.90;;;;;;4880978;29;20882;-75
2021/12/25 10:04:31;;;;;;;2.43;2.23;;;9.60;99.90;;;;;;4880130;29;20432;-76
2021/12/25 10:06:58;;;;;;;1.90;1.80;;;9.70;99.90;;;;;;4880258;29;20441;-75
2021/12/25 10:09:25;;;;;;;1.90;1.47;;;9.70;99.90;;;;;;4880413;29;20521;-74
2021/12/25 10:12:03;;;;;;;1.53;1.23;;;9.70;99.90;;;;;;4880299;29;20565;-74
2021/12/25 10:14:29;;;;;;;2.33;1.90;;;9.80;99.90;;;;;;4878639;29;20465;-75
2021/12/25 10:16:55;;;;;;;2.20;2.00;;;9.80;99.90;;;;;;4880882;29;20445;-77
2021/12/25 10:19:23;;;;;;;1.87;1.77;;;9.80;99.90;;;;;;4878783;29;20434;-76
2021/12/25 10:22:04;;;;;;;2.30;1.70;;;9.90;99.90;;;;;;4878481;29;20826;-75
2021/12/25 10:24:30;;;;;;;3.10;2.80;;;9.90;99.90;;;;;;4878531;29;20424;-75
2021/12/25 10:27:11;;;;;;;6.03;5.23;;;10.00;99.90;;;;;;4878635;29;21082;-74
2021/12/25 10:29:37;;;;;;;2.20;2.10;;;10.00;99.90;;;;;;4866639;29;20407;-75
2021/12/25 10:32:17;;;;;;;1.67;1.57;;;10.00;99.90;;;;;;4878419;29;20494;-75
2021/12/25 10:34:43;;;;;;;1.73;1.63;;;10.10;99.90;;;;;;4877001;29;20182;-75
2021/12/25 10:37:11;;;;;;;2.10;1.90;;;10.20;99.90;;;;;;4879038;29;20435;-75
2021/12/25 10:39:37;;;;;;;4.37;2.50;;;10.20;99.90;;;;;;4879742;29;20432;-76
2021/12/25 10:42:17;;;;;;;4.87;3.73;;;10.20;99.90;;;;;;4878845;29;20456;-75
2021/12/25 10:44:44;;;;;;;3.60;2.10;;;10.10;99.90;;;;;;4877724;29;20497;-75
2021/12/25 10:47:20;;;;;;;2.40;1.83;;;10.10;99.90;;;;;;4878534;29;20421;-75
2021/12/25 10:49:54;;;;;;;2.20;1.60;;;10.20;99.90;;;;;;4878024;29;20440;-76
2021/12/25 10:52:31;;;;;;;1.70;1.60;;;10.20;99.90;;;;;;4877799;29;20464;-76
2021/12/25 10:55:00;;;;;;;1.40;1.27;;;10.20;99.90;;;;;;4878213;29;20524;-75
2021/12/25 10:57:40;;;;;;;2.00;1.80;;;10.30;99.90;;;;;;4860979;29;20922;-77
2021/12/25 11:00:12;;;;;;;1.63;1.53;;;10.40;99.90;;;;;;4879848;29;20429;-76
2021/12/25 11:02:40;;;;;;;4.20;1.37;;;10.40;99.90;;;;;;4878765;29;20448;-76
2021/12/25 11:05:22;;;;;;;1.10;1.10;;;10.40;99.90;;;;;;4879275;29;20442;-76
2021/12/25 11:08:12;;;;;;;2.30;1.57;;;10.40;99.90;;;;;;4878788;29;20450;-76
2021/12/25 11:10:57;;;;;;;1.70;1.40;;;10.50;99.90;;;;;;4866395;29;20475;-76
2021/12/25 11:13:39;;;;;;;1.40;1.30;;;10.40;99.90;;;;;;4879184;29;20526;-76
2021/12/25 11:16:27;;;;;;;1.63;1.53;;;10.50;99.90;;;;;;4880033;29;20419;-77
2021/12/25 11:19:06;;;;;;;1.40;1.30;;;10.60;99.90;;;;;;4879556;29;20488;-76
2021/12/25 11:21:36;;;;;;;2.33;2.13;;;10.70;99.90;;;;;;4879749;29;20442;-76
2021/12/25 11:24:17;;;;;;;2.47;1.40;;;10.80;99.90;;;;;;4878490;29;20430;-76
2021/12/25 11:26:54;;;;;;;2.37;1.47;;;10.90;99.90;;;;;;4875250;29;20502;-76
2021/12/25 11:29:21;;;;;;;1.40;1.30;;;11.00;99.90;;;;;;4879183;29;20457;-76
2021/12/25 11:31:49;;;;;;;2.13;1.67;;;11.10;99.90;;;;;;4879060;29;20478;-76
2021/12/25 11:34:15;;;;;;;2.20;2.10;;;11.20;99.90;;;;;;4878946;29;20435;-76
2021/12/25 11:36:47;;;;;;;4.30;1.40;;;11.10;99.90;;;;;;4878754;29;20455;-76
2021/12/25 11:39:15;;;;;;;1.63;1.53;;;11.20;99.90;;;;;;4877705;29;20471;-76
2021/12/25 11:41:42;;;;;;;1.10;1.10;;;11.20;99.90;;;;;;4877860;29;20461;-76
2021/12/25 11:44:42;;;;;;;1.10;1.10;;;11.20;99.90;;;;;;4877659;29;21028;-76
2021/12/25 11:47:28;;;;;;;4.20;1.17;;;11.20;99.90;;;;;;4879303;29;20494;-76
2021/12/25 11:49:58;;;;;;;1.70;1.20;;;11.10;99.90;;;;;;4877927;29;20513;-76
2021/12/25 11:52:28;;;;;;;1.10;1.00;;;11.10;99.90;;;;;;4878531;29;20483;-76
2021/12/25 11:57:51;;;;;;;3.33;1.60;;;11.00;99.90;;;;;;4878297;29;20482;-74
2021/12/25 12:00:35;;;;;;;3.30;1.50;;;11.10;99.90;;;;;;4878526;29;20193;-75
2021/12/25 12:03:01;;;;;;;1.30;1.20;;;11.00;99.90;;;;;;4875620;29;20446;-75
2021/12/25 12:05:32;;;;;;;2.93;2.33;;;11.00;99.90;;;;;;4878000;29;20423;-75
2021/12/25 12:08:03;;;;;;;3.20;2.17;;;10.90;99.90;;;;;;4878231;29;20269;-77
2021/12/25 12:10:55;;;;;;;2.40;1.80;;;10.90;99.90;;;;;;4877123;29;20435;-75
2021/12/25 12:13:22;;;;;;;4.80;2.07;;;10.80;99.90;;;;;;4874080;29;20522;-76
2021/12/25 12:15:50;;;;;;;1.93;1.83;;;10.80;99.90;;;;;;4877922;29;20431;-77
2021/12/25 12:18:33;;;;;;;1.30;1.20;;;10.70;99.90;;;;;;4877983;29;20439;-75
2021/12/25 12:21:34;;;;;;;1.50;1.40;;;10.60;99.90;;;;;;4878485;29;20447;-78
2021/12/25 12:24:42;;;;;;;1.70;1.60;;;10.50;99.90;;;;;;4876727;29;20443;-77
2021/12/25 12:27:08;;;;;;;1.43;1.33;;;10.40;99.90;;;;;;4878617;29;20849;-76
2021/12/25 12:29:44;;;;;;;1.80;1.57;;;10.40;99.90;;;;;;4877174;29;20497;-77
2021/12/25 12:32:18;;;;;;;1.53;1.37;;;10.40;99.90;;;;;;4878110;29;20720;-76
2021/12/25 12:34:44;;;;;;;1.97;1.87;;;10.30;99.90;;;;;;4878734;29;20469;-75
2021/12/25 12:37:16;;;;;;;3.40;2.10;;;10.20;99.90;;;;;;4878361;29;20526;-76
2021/12/25 12:39:53;;;;;;;2.50;2.30;;;10.20;99.90;;;;;;4878210;29;20430;-75
2021/12/25 12:42:19;;;;;;;1.90;1.80;;;10.20;99.90;;;;;;4878153;29;20798;-75
2021/12/25 12:44:47;;;;;;;4.27;1.90;;;10.10;99.90;;;;;;4877014;29;20442;-74
2021/12/25 12:47:15;;;;;;;1.93;1.73;;;10.20;99.90;;;;;;4877788;29;20443;-74
2021/12/25 12:49:50;;;;;;;2.40;2.20;;;10.10;99.90;;;;;;4877651;29;20802;-75
2021/12/25 12:52:17;;;;;;;3.07;2.77;;;10.10;99.90;;;;;;4876438;29;20486;-74
2021/12/25 12:54:45;;;;;;;3.03;2.03;;;10.10;99.90;;;;;;4877153;29;20972;-75
2021/12/25 12:57:22;;;;;;;2.57;2.13;;;10.00;99.90;;;;;;4878031;29;20424;-75
2021/12/25 13:00:00;;;;;;;2.67;2.30;;;10.10;99.90;;;;;;4876648;29;20796;-74
2021/12/25 13:02:29;;;;;;;3.10;2.50;;;10.10;99.90;;;;;;4878024;29;20799;-75
2021/12/25 13:04:58;;;;;;;3.63;2.27;;;10.10;99.90;;;;;;4877300;29;20474;-75
2021/12/25 13:07:26;;;;;;;2.97;2.70;;;10.10;99.90;;;;;;4877984;29;20523;-74
2021/12/25 13:10:00;;;;;;;2.10;1.90;;;10.10;99.90;;;;;;4877825;29;20941;-74
2021/12/25 13:15:04;;;;;;;2.27;2.17;;;10.10;99.90;;;;;;4876873;29;20418;-75
2021/12/25 13:17:29;;;;;;;2.80;2.60;;;10.00;99.90;;;;;;4877339;29;20418;-74
2021/12/25 13:19:55;;;;;;;2.37;2.27;;;9.90;99.90;;;;;;4877456;29;20421;-74
2021/12/25 13:22:21;;;;;;;2.10;1.90;;;9.90;99.90;;;;;;4877636;29;20304;-75
2021/12/25 13:24:52;;;;;;;2.93;2.73;;;9.80;99.90;;;;;;4877560;29;20187;-74
2021/12/25 13:27:19;;;;;;;5.50;2.63;;;9.80;99.90;;;;;;4876535;29;20432;-74
2021/12/25 13:29:44;;;;;;;2.50;2.30;;;9.70;99.90;;;;;;4877584;29;20431;-74
2021/12/25 13:32:10;;;;;;;2.20;1.87;;;9.70;99.90;;;;;;4877246;29;21111;-75
2021/12/25 13:34:38;;;;;;;2.80;2.27;;;9.60;99.90;;;;;;4877444;29;20216;-74
2021/12/25 13:37:06;;;;;;;3.57;2.77;;;9.60;99.90;;;;;;4877540;29;20419;-74
2021/12/25 13:39:35;;;;;;;2.20;2.00;;;9.50;99.90;;;;;;4877509;29;20925;-74
2021/12/25 13:42:10;;;;;;;2.50;2.30;;;9.60;99.90;;;;;;4877484;29;20944;-75
2021/12/25 13:44:40;;;;;;;2.93;2.70;;;9.50;99.90;;;;;;4877392;29;20449;-75
2021/12/25 13:47:11;;;;;;;2.97;2.53;;;9.50;99.90;;;;;;4877434;29;20430;-74
2021/12/25 13:49:46;;;;;;;3.40;2.90;;;9.40;99.90;;;;;;4877278;29;20419;-74
2021/12/25 13:52:42;;;;;;;3.07;2.70;;;9.40;99.90;;;;;;4877206;29;20570;-74
2021/12/25 13:55:15;;;;;;;3.50;2.70;;;9.40;99.90;;;;;;4876064;29;20438;-74
2021/12/25 13:57:47;;;;;;;4.77;3.20;;;9.40;99.90;;;;;;4877526;29;20465;-74
2021/12/25 14:00:15;;;;;;;4.30;2.93;;;9.40;99.90;;;;;;4877104;29;20429;-74
2021/12/25 14:02:52;;;;;;;5.60;2.97;;;9.40;99.90;;;;;;4877354;29;20427;-74
2021/12/25 14:05:20;;;;;;;3.70;2.60;;;9.30;99.90;;;;;;4877400;29;20432;-74
2021/12/25 14:07:48;;;;;;;4.27;3.87;;;9.40;99.90;;;;;;4877472;29;20508;-74
2021/12/25 14:10:23;;;;;;;4.13;3.40;;;9.40;99.90;;;;;;4876701;29;20550;-74
2021/12/25 14:12:56;;;;;;;5.23;4.83;;;9.40;99.90;;;;;;4884473;29;20453;-74
2021/12/25 14:15:25;;;;;;;4.77;4.27;;;9.30;99.90;;;;;;4879894;29;20417;-74
2021/12/25 14:17:51;;;;;;;8.40;4.23;;;9.30;99.90;;;;;;4880239;29;20931;-74
2021/12/25 14:20:26;;;;;;;4.63;4.13;;;9.30;99.90;;;;;;4887767;29;20501;-75
2021/12/25 14:23:11;;;;;;;6.03;4.90;;;9.30;99.90;;;;;;4884448;29;20442;-74
2021/12/25 14:25:39;;;;;;;6.90;5.90;;;9.30;99.90;;;;;;4875859;29;20426;-74
2021/12/25 14:28:14;;;;;;;6.47;5.30;;;9.30;99.90;;;;;;4879354;29;20421;-75
2021/12/25 14:31:01;;;;;;;6.03;4.60;;;9.30;99.90;;;;;;4880196;29;20442;-74
2021/12/25 14:33:31;;;;;;;7.00;6.07;;;9.30;99.90;;;;;;4879935;29;20435;-75
2021/12/25 14:35:57;;;;;;;6.93;5.20;;;9.30;99.90;;;;;;4880710;29;20787;-74
2021/12/25 14:38:23;;;;;;;6.00;5.40;;;9.30;99.90;;;;;;4880739;29;20414;-75
2021/12/25 14:40:51;;;;;;;6.63;6.03;;;9.30;99.90;;;;;;4880455;29;20262;-75
2021/12/25 14:43:29;;;;;;;11.13;7.63;;;9.30;99.90;;;;;;4880130;29;20484;-74
2021/12/25 14:45:57;;;;;;;9.40;6.50;;;9.20;99.90;;;;;;4880410;29;20420;-74
2021/12/25 14:48:30;;;;;;;9.00;7.47;;;9.20;99.90;;;;;;4880187;29;20422;-74
2021/12/25 14:51:05;;;;;;;8.47;6.67;;;9.20;99.90;;;;;;4880118;29;20568;-74
2021/12/25 14:53:31;;;;;;;8.10;6.60;;;9.10;99.90;;;;;;4880049;29;20422;-74
2021/12/25 14:56:06;;;;;;;9.83;7.50;;;9.00;99.90;;;;;;4880089;29;20478;-74
2021/12/25 14:58:34;;;;;;;14.27;7.27;;;8.90;99.90;;;;;;4880215;29;20418;-74
2021/12/25 15:01:10;;;;;;;11.60;8.37;;;8.80;99.90;;;;;;4879833;29;20466;-74
2021/12/25 15:03:38;;;;;;;12.50;9.67;;;8.80;99.90;;;;;;4879979;29;20419;-74
2021/12/25 15:06:04;;;;;;;11.87;10.03;;;8.80;99.90;;;;;;4878661;29;20936;-74
2021/12/25 15:08:37;;;;;;;12.80;8.97;;;8.70;99.90;;;;;;4880010;29;20425;-74
2021/12/25 15:11:07;;;;;;;14.00;9.80;;;8.60;99.90;;;;;;4879521;29;20220;-74
2021/12/25 15:13:32;;;;;;;14.00;10.67;;;8.60;99.90;;;;;;4879760;29;20507;-74
2021/12/25 15:15:59;;;;;;;13.97;9.83;;;8.50;99.90;;;;;;4879751;29;20511;-75
2021/12/25 15:18:31;;;;;;;12.20;10.13;;;8.50;99.90;;;;;;4879815;29;20576;-74
2021/12/25 15:21:20;;;;;;;13.63;10.17;;;8.40;99.90;;;;;;4879554;29;20451;-74
2021/12/25 15:23:49;;;;;;;11.60;10.10;;;8.30;99.90;;;;;;4879575;29;20418;-74
2021/12/25 15:26:17;;;;;;;14.80;10.30;;;8.20;99.90;;;;;;4879518;29;20430;-74
2021/12/25 15:28:58;;;;;;;13.90;10.43;;;8.20;99.90;;;;;;4879587;29;20488;-74
2021/12/25 15:31:27;;;;;;;12.33;10.70;;;8.20;99.90;;;;;;4879266;29;20478;-74
2021/12/25 15:33:59;;;;;;;14.47;10.10;;;8.10;99.90;;;;;;4879446;29;20438;-75
2021/12/25 15:36:28;;;;;;;14.60;9.20;;;8.10;99.90;;;;;;4879681;29;20422;-75
2021/12/25 15:38:56;;;;;;;12.07;8.83;;;8.00;99.90;;;;;;4878285;29;20396;-75
2021/12/25 15:41:22;;;;;;;12.20;9.90;;;7.90;99.90;;;;;;4879139;29;20444;-75
2021/12/25 15:43:49;;;;;;;10.80;9.00;;;7.80;99.90;;;;;;4879067;29;20455;-75
2021/12/25 15:46:15;;;;;;;11.03;9.70;;;7.70;99.90;;;;;;4879307;29;20445;-75
2021/12/25 15:48:42;;;;;;;10.40;9.30;;;7.70;99.90;;;;;;4879249;29;20418;-75
2021/12/25 15:51:09;;;;;;;10.80;8.97;;;7.60;99.90;;;;;;4878932;29;20473;-75
2021/12/25 15:53:35;;;;;;;10.17;8.17;;;7.70;99.90;;;;;;4879127;29;20395;-77
2021/12/25 15:56:01;;;;;;;13.07;10.40;;;7.70;99.90;;;;;;4880766;29;20989;-77
2021/12/25 15:58:27;;;;;;;11.33;9.47;;;7.60;99.90;;;;;;4880370;29;20396;-76
2021/12/25 16:00:53;;;;;;;16.13;10.20;;;7.60;99.90;;;;;;4879351;29;20200;-75
2021/12/25 16:03:20;;;;;;;10.70;9.10;;;7.50;99.90;;;;;;4879170;29;20194;-75
2021/12/25 16:05:46;;;;;;;16.87;10.73;;;7.50;99.90;;;;;;4879472;29;20422;-76
2021/12/25 16:08:12;;;;;;;12.50;9.83;;;7.40;99.90;;;;;;4879454;29;20403;-76
2021/12/25 16:10:38;;;;;;;16.33;10.23;;;7.40;99.90;;;;;;4878935;29;20423;-76
2021/12/25 16:13:05;;;;;;;21.93;11.03;;;7.40;99.90;;;;;;4878665;29;20413;-76
2021/12/25 16:15:31;;;;;;;17.43;10.50;;;7.40;99.90;;;;;;4878971;29;20172;-76
2021/12/25 16:17:56;;;;;;;13.80;11.27;;;7.30;99.90;;;;;;4878912;29;20448;-76
2021/12/25 16:20:22;;;;;;;13.63;9.93;;;7.10;99.90;;;;;;4879305;29;20907;-75
2021/12/25 16:22:48;;;;;;;12.37;10.50;;;7.10;99.90;;;;;;4879756;29;20580;-75
2021/12/25 16:25:15;;;;;;;13.50;9.90;;;7.00;99.90;;;;;;4878798;29;20424;-76
2021/12/25 16:27:41;;;;;;;12.40;10.47;;;7.00;99.90;;;;;;4879258;29;20188;-76
2021/12/25 16:30:10;;;;;;;15.63;9.97;;;6.90;99.90;;;;;;4878557;29;20421;-76
2021/12/25 16:32:37;;;;;;;10.83;9.00;;;6.90;99.90;;;;;;4878505;29;20840;-77
2021/12/25 16:35:04;;;;;;;10.30;8.20;;;6.80;99.90;;;;;;4878463;29;20429;-75
2021/12/25 16:37:30;;;;;;;10.13;8.50;;;6.60;99.90;;;;;;4878604;29;20755;-76
2021/12/25 16:39:55;;;;;;;9.90;7.77;;;6.50;99.90;;;;;;4878594;29;20500;-75
2021/12/25 16:42:21;;;;;;;8.23;7.43;;;6.30;99.90;;;;;;4877182;29;20214;-76
2021/12/25 16:44:46;;;;;;;11.80;8.93;;;6.30;99.90;;;;;;4878397;29;20187;-76
2021/12/25 16:47:12;;;;;;;10.40;8.60;;;6.20;99.90;;;;;;4878338;29;20211;-76
2021/12/25 16:49:39;;;;;;;12.10;8.53;;;6.00;99.90;;;;;;4878117;29;20526;-76
2021/12/25 16:52:05;;;;;;;12.37;9.27;;;5.90;99.90;;;;;;4878076;29;20479;-76
2021/12/25 16:54:31;;;;;;;11.57;9.13;;;5.80;99.90;;;;;;4878156;29;20495;-76
2021/12/25 16:56:57;;;;;;;12.20;8.97;;;5.80;99.90;;;;;;4878240;29;20415;-76
2021/12/25 16:59:25;;;;;;;10.97;8.60;;;5.70;99.90;;;;;;4878021;29;20423;-76
2021/12/25 17:01:51;;;;;;;10.17;8.40;;;5.70;99.90;;;;;;4878223;29;20201;-76
2021/12/25 17:04:17;;;;;;;11.20;8.63;;;5.60;99.90;;;;;;4877866;29;20467;-76
2021/12/25 17:06:42;;;;;;;10.43;8.47;;;5.70;99.90;;;;;;4878376;29;20184;-75
2021/12/25 17:09:08;;;;;;;9.90;8.70;;;5.70;99.90;;;;;;4877862;29;20234;-76
2021/12/25 17:11:34;;;;;;;11.97;8.60;;;5.60;99.90;;;;;;4878204;29;20226;-76
2021/12/25 17:14:02;;;;;;;16.77;10.37;;;5.60;99.90;;;;;;4877868;29;20216;-76
2021/12/25 17:16:30;;;;;;;14.63;10.00;;;5.60;99.90;;;;;;4878268;29;20183;-76
2021/12/25 17:18:56;;;;;;;12.40;9.53;;;5.60;99.90;;;;;;4878047;29;20405;-76
2021/12/25 17:21:22;;;;;;;14.23;10.20;;;5.60;99.90;;;;;;4878140;29;20934;-76
2021/12/25 17:23:49;;;;;;;19.03;8.83;;;5.50;99.90;;;;;;4878357;29;20453;-75
2021/12/25 17:26:14;;;;;;;11.20;9.60;;;5.50;99.90;;;;;;4878261;29;20182;-76
2021/12/25 17:28:40;;;;;;;11.83;8.93;;;5.60;99.90;;;;;;4877942;29;20427;-75
2021/12/25 17:31:06;;;;;;;14.43;10.50;;;5.50;99.90;;;;;;4877347;29;20222;-75
2021/12/25 17:33:31;;;;;;;10.67;8.30;;;5.50;99.90;;;;;;4877857;29;20208;-76
2021/12/25 17:36:00;;;;;;;10.53;8.87;;;5.50;99.90;;;;;;4878349;29;20183;-76
2021/12/25 17:38:36;;;;;;;14.87;10.40;;;5.50;99.90;;;;;;4878581;29;20203;-76
2021/12/25 17:41:07;;;;;;;11.50;9.40;;;5.40;99.90;;;;;;4877069;29;20852;-76